Nearby METAR Reports

 

KMRB - Martinsburg, West Virginia, USA
Distance from station: NNW 9mi, 14km
Updated: 08/03/2020 9:53am
Partly cloudy
Partly cloudy
 Wind from SE
Wind: SE 3 mph , 6 km/h
Temperature: 75°F , 24°C
Dew Point: 63°F , 17°C
Humidity: 65%
Barometer: 30.07 inHg , 1018.3 hPa
Clouds: Partly cloudy
Visibility: 10 miles , 16 km
Cloud details: Partly cloudy 7500 ft
2020/08/03 13:53 KMRB 031353Z 14003KT 10SM SCT075 24/17 A3007 RMK AO2 SLP177 T02390172
KOKV - Winchester Rgnl, Virginia, USA
Distance from station: SW 17mi, 28km
Updated: 08/03/2020 10:15am
Partly cloudy
Partly cloudy
 Wind from calm
Wind: Calm
Temperature: 73°F , 23°C
Dew Point: 63°F , 17°C
Humidity: 69%
Barometer: 30.07 inHg , 1018.3 hPa
Clouds: Partly cloudy
Visibility: 10 miles , 16 km
Cloud details: Partly cloudy 7000 ft
Partly cloudy 8000 ft
2020/08/03 14:15 KOKV 031415Z AUTO 00000KT 10SM SCT070 SCT080 23/17 A3007 RMK AO2
 
KJYO - Leesburg/Godfrey, Virginia, USA
Distance from station: SE 23mi, 38km
Updated: 08/03/2020 10:35am
Clear
Clear
 Wind from NE
Wind: NE 5 mph , 7 km/h
Temperature: 77°F , 25°C
Dew Point: 64°F , 18°C
Humidity: 65%
Barometer: 30.09 inHg , 1019 hPa
Clouds: Clear
Visibility: 10 miles , 16 km
2020/08/03 14:35 KJYO 031435Z AUTO 04004KT 10SM CLR 25/18 A3009 RMK AO2
KFDK - Frederick, Maryland, USA
Distance from station: ENE 30mi, 48km
Updated: 08/03/2020 9:47am
Mostly cloudy
Mostly cloudy
 Wind from calm
Wind: Calm
Temperature: 75°F , 24°C
Dew Point: 63°F , 17°C
Humidity: 65%
Barometer: 30.08 inHg , 1018.6 hPa
Clouds: Mostly cloudy
Visibility: 10 miles , 16 km
Cloud details: Mostly cloudy 8000 ft
Mostly cloudy 9000 ft
2020/08/03 13:47 KFDK 031347Z 00000KT 10SM BKN080 BKN090 24/17 A3008
 
KHGR - Hagerstown, Maryland, USA
Distance from station: NNE 30mi, 48km
Updated: 08/03/2020 9:50am
Clear
Clear
 Wind from calm
Wind: Calm
Temperature: 75°F , 24°C
Dew Point: 63°F , 17°C
Humidity: 65%
Barometer: 30.09 inHg , 1019 hPa
Clouds: Clear
Visibility: 10 miles , 16 km
2020/08/03 13:50 KHGR 031350Z 00000KT 10SM CLR 24/17 A3009
KIAD - Wash Dc/Dulles, Virginia, USA
Distance from station: SE 34mi, 55km
Updated: 08/03/2020 9:52am
Mostly cloudy
Mostly cloudy
 Wind from NE
Wind: NE 5 mph , 7 km/h
Temperature: 79°F , 26°C
Dew Point: 63°F , 17°C
Humidity: 58%
Barometer: 30.07 inHg , 1018.3 hPa
Clouds: Mostly cloudy
Visibility: 10 miles , 16 km
Cloud details: Partly cloudy 6500 ft
Partly cloudy 8500 ft
Mostly cloudy 12000 ft
Mostly cloudy 23000 ft
2020/08/03 13:52 KIAD 031352Z 05004KT 10SM SCT065 SCT085 BKN120 BKN230 26/17 A3007 RMK AO2 SLP178 T02610172
 
KRSP - Nsf Thurmont, Maryland, USA
Distance from station: NE 34mi, 55km
Updated: 08/03/2020 9:54am
Clear
Clear
 Wind from varies
Wind: varies 3 mph , 6 km/h
Temperature: 70°F , 21°C
Dew Point: 63°F , 17°C
Humidity: 78%
Barometer: 30.13 inHg , 1020.3 hPa
Clouds: Clear
Visibility: 10 miles , 16 km
2020/08/03 13:54 KRSP 031354Z AUTO VRB03KT 10SM CLR 21/17 A3013 RMK AO2 SLP289 T02110167 $
KGAI - Gaithersburg, Maryland, USA
Distance from station: E 40mi, 64km
Updated: 08/03/2020 10:28am
Haze, Clear
Haze, Clear
 Wind from calm
Wind: Calm
Temperature: 79°F , 26°C
Dew Point: 66°F , 19°C
Humidity: 65%
Barometer: 30.09 inHg , 1019 hPa
Summary: Haze
Clouds: Clear
Visibility: 3/4 mile , 1.2 km
2020/08/03 14:28 KGAI 031428Z AUTO 00000KT 3/4SM HZ CLR 26/19 A3009 RMK AO2
 
KRYT - Fountain Dale, Pennsylvania, USA
Distance from station: NE 40mi, 64km
Updated: 11/13/2017 7:53am
NOT Current
Mist, Overcast
Mist, Overcast
 Wind from calm
Wind: Calm
Temperature: 37°F , 3°C
Dew Point: 34°F , 1°C
Humidity: 87%
Barometer: 30.31 inHg , 1026.4 hPa
Summary: Mist
Clouds: Overcast
Visibility: 5 miles , 8 km
Cloud details: Overcast 700 ft
2017/11/13 12:53 KRYT 131253Z AUTO 00000KT 5SM BR OVC007 03/01 A3031 RMK AO2 SLP275 T00280011 TSNO $
KHEF - Manassas Muni, Virginia, USA
Distance from station: SSE 44mi, 72km
Updated: 08/03/2020 9:56am
Few Clouds
Few Clouds
 Wind from NNE
Wind: NNE 8 mph , 13 km/h
Temperature: 81°F , 27°C
Heat Index: 83°F , 28°C
Dew Point: 64°F , 18°C
Humidity: 58%
Barometer: 30.07 inHg , 1018.3 hPa
Clouds: Few Clouds
Visibility: 10 miles , 16 km
Cloud details: Few Clouds 6000 ft
2020/08/03 13:56 KHEF 031356Z 03007KT 10SM FEW060 27/18 A3007 RMK AO2 SLP188 T02670183
 
KHWY - Warrenton, Virginia, USA
Distance from station: SSE 50mi, 80km
Updated: 08/03/2020 10:15am
Clear
Clear
 Wind from NE
Wind: NE 5 mph , 7 km/h
Temperature: 82°F , 28°C
Heat Index: 82°F , 28°C
Dew Point: 61°F , 16°C
Humidity: 48%
Barometer: 30.07 inHg , 1018.3 hPa
Clouds: Clear
Visibility: 10 miles , 16 km
2020/08/03 14:15 KHWY 031415Z AUTO 05004KT 10SM CLR 28/16 A3007 RMK AO2 T02760164